createdAt,value
2018-08-07T00:00:32.246Z,47.71
2018-08-07T00:01:35.779Z,47.20
2018-08-07T00:02:39.168Z,47.68
2018-08-07T00:03:42.561Z,47.42
2018-08-07T00:04:45.979Z,47.36
2018-08-07T00:05:49.406Z,47.50
2018-08-07T00:06:52.834Z,47.12
2018-08-07T00:07:56.551Z,47.42
2018-08-07T00:08:59.978Z,47.64
2018-08-07T00:10:03.657Z,47.39
2018-08-07T00:11:07.070Z,47.38
2018-08-07T00:12:10.526Z,47.39
2018-08-07T00:13:13.915Z,47.74
2018-08-07T00:14:17.379Z,47.45
2018-08-07T00:15:21.968Z,47.10
2018-08-07T00:16:25.386Z,47.15
2018-08-07T00:17:28.828Z,47.50
2018-08-07T00:18:32.285Z,47.50
2018-08-07T00:19:35.718Z,47.44
2018-08-07T00:20:39.135Z,47.79
2018-08-07T00:21:42.577Z,48.19
2018-08-07T00:22:46.449Z,48.19
2018-08-07T00:23:49.865Z,48.11
2018-08-07T00:24:53.273Z,47.62
2018-08-07T00:25:56.631Z,47.91
2018-08-07T00:27:00.026Z,48.15
2018-08-07T00:28:03.485Z,47.82
2018-08-07T00:29:06.906Z,47.52
2018-08-07T00:30:13.675Z,47.46
2018-08-07T00:31:17.120Z,47.77
2018-08-07T00:32:20.525Z,48.11
2018-08-07T00:33:23.923Z,47.73
2018-08-07T00:34:27.285Z,47.71
2018-08-07T00:35:30.699Z,48.39
2018-08-07T00:36:34.084Z,48.52
2018-08-07T00:37:37.929Z,47.87
2018-08-07T00:38:41.351Z,48.09
2018-08-07T00:39:44.742Z,48.20
2018-08-07T00:40:48.115Z,48.51
2018-08-07T00:41:51.529Z,47.96
2018-08-07T00:42:54.911Z,48.43
2018-08-07T00:43:58.359Z,48.50
2018-08-07T00:45:01.782Z,48.44
2018-08-07T00:46:05.366Z,47.90
2018-08-07T00:47:08.787Z,48.45
2018-08-07T00:48:12.242Z,47.81
2018-08-07T00:49:15.679Z,48.40
2018-08-07T00:50:20.839Z,48.02
2018-08-07T00:51:24.349Z,48.45
2018-08-07T00:52:27.745Z,47.96
2018-08-07T00:53:31.123Z,47.83
2018-08-07T00:54:34.527Z,47.91
2018-08-07T00:55:37.984Z,47.79
2018-08-07T00:56:41.358Z,48.29
2018-08-07T00:57:44.930Z,48.02
2018-08-07T00:58:48.339Z,47.99
2018-08-07T00:59:51.759Z,48.38
2018-08-07T01:00:55.156Z,47.50
2018-08-07T01:01:58.579Z,47.99
2018-08-07T01:03:01.965Z,47.78
2018-08-07T01:04:05.383Z,47.80
2018-08-07T01:05:12.070Z,47.82
2018-08-07T01:06:15.441Z,48.17
2018-08-07T01:07:18.857Z,48.08
2018-08-07T01:08:22.281Z,47.83
2018-08-07T01:09:25.709Z,47.73
2018-08-07T01:10:29.098Z,47.69
2018-08-07T01:11:32.520Z,48.00
2018-08-07T01:12:36.354Z,47.64
2018-08-07T01:13:39.780Z,48.22
2018-08-07T01:14:43.263Z,48.30
2018-08-07T01:15:46.673Z,48.07
2018-08-07T01:16:50.049Z,47.90
2018-08-07T01:17:53.429Z,47.87
2018-08-07T01:18:56.823Z,48.23
2018-08-07T01:20:00.386Z,48.51
2018-08-07T01:21:03.843Z,48.39
2018-08-07T01:22:07.313Z,48.38
2018-08-07T01:23:10.692Z,48.32
2018-08-07T01:24:14.156Z,47.76
2018-08-07T01:25:19.684Z,47.88
2018-08-07T01:26:23.123Z,48.16
2018-08-07T01:27:26.540Z,47.76
2018-08-07T01:28:29.975Z,47.60
2018-08-07T01:29:33.377Z,47.74
2018-08-07T01:30:36.763Z,47.85
2018-08-07T01:31:40.148Z,48.15
2018-08-07T01:32:43.592Z,48.20
2018-08-07T01:33:46.993Z,48.10
2018-08-07T01:34:50.429Z,48.16
2018-08-07T01:35:53.807Z,47.46
2018-08-07T01:36:57.412Z,48.20
2018-08-07T01:38:00.846Z,47.46
2018-08-07T01:39:06.197Z,47.71
2018-08-07T01:40:11.234Z,48.10
2018-08-07T01:41:14.606Z,48.51
2018-08-07T01:42:18.087Z,47.53
2018-08-07T01:43:21.471Z,47.54
2018-08-07T01:44:24.835Z,47.68
2018-08-07T01:45:28.268Z,48.17
2018-08-07T01:46:31.707Z,48.14
2018-08-07T01:47:35.188Z,48.19
2018-08-07T01:48:38.576Z,47.78
2018-08-07T01:49:42.002Z,47.64
2018-08-07T01:50:45.411Z,48.24
2018-08-07T01:51:48.799Z,47.93
2018-08-07T01:52:52.226Z,48.27
2018-08-07T01:53:55.605Z,48.01
2018-08-07T01:54:58.971Z,48.04
2018-08-07T01:56:02.357Z,48.14
2018-08-07T01:57:05.814Z,47.51
2018-08-07T01:58:09.217Z,48.04
2018-08-07T01:59:12.631Z,47.55
2018-08-07T02:00:16.080Z,47.70
2018-08-07T02:01:19.491Z,47.74
2018-08-07T02:02:22.929Z,47.74
2018-08-07T02:03:26.494Z,48.36
2018-08-07T02:04:29.901Z,48.32
2018-08-07T02:05:33.267Z,47.56
2018-08-07T02:06:36.679Z,47.91
2018-08-07T02:07:40.754Z,48.01
2018-08-07T02:08:44.179Z,48.00
2018-08-07T02:09:47.551Z,48.06
2018-08-07T02:10:50.938Z,47.76
2018-08-07T02:11:54.323Z,48.57
2018-08-07T02:12:57.749Z,47.77
2018-08-07T02:14:01.138Z,48.42
2018-08-07T02:15:04.614Z,48.16
2018-08-07T02:16:08.007Z,47.50
2018-08-07T02:17:11.437Z,47.76
2018-08-07T02:18:14.830Z,47.87
2018-08-07T02:19:18.219Z,48.49
2018-08-07T02:20:21.648Z,47.81
2018-08-07T02:21:25.039Z,47.84
2018-08-07T02:22:28.434Z,48.59
2018-08-07T02:23:31.847Z,48.23
2018-08-07T02:24:35.317Z,48.27
2018-08-07T02:25:38.687Z,48.27
2018-08-07T02:26:42.084Z,48.57
2018-08-07T02:27:46.100Z,48.28
2018-08-07T02:28:49.477Z,48.42
2018-08-07T02:29:52.895Z,48.64
2018-08-07T02:30:56.299Z,48.37
2018-08-07T02:31:59.683Z,48.27
2018-08-07T02:33:03.076Z,48.63
2018-08-07T02:34:06.460Z,48.68
2018-08-07T02:35:11.452Z,48.60
2018-08-07T02:36:14.824Z,48.82
2018-08-07T02:37:18.222Z,48.31
2018-08-07T02:38:21.627Z,48.24
2018-08-07T02:39:25.012Z,48.10
2018-08-07T02:40:28.414Z,48.62
2018-08-07T02:41:31.874Z,48.62
2018-08-07T02:42:35.525Z,48.51
2018-08-07T02:43:38.935Z,48.00
2018-08-07T02:44:42.326Z,48.53
2018-08-07T02:45:45.786Z,48.85
2018-08-07T02:46:49.184Z,48.80
2018-08-07T02:47:52.563Z,48.90
2018-08-07T02:48:55.953Z,48.94
2018-08-07T02:49:59.332Z,48.19
2018-08-07T02:51:03.350Z,48.53
2018-08-07T02:52:06.789Z,48.41
2018-08-07T02:53:10.198Z,48.48
2018-08-07T02:54:14.483Z,48.76
2018-08-07T02:55:17.856Z,48.27
2018-08-07T02:56:21.378Z,48.22
2018-08-07T02:57:24.759Z,48.36
2018-08-07T02:58:28.198Z,48.75
2018-08-07T02:59:31.630Z,48.21
2018-08-07T03:00:40.688Z,48.49
2018-08-07T03:01:44.067Z,48.21
2018-08-07T03:02:47.712Z,48.12
2018-08-07T03:03:51.142Z,48.17
2018-08-07T03:04:54.575Z,48.64
2018-08-07T03:05:57.980Z,48.84
2018-08-07T03:07:01.394Z,48.02
2018-08-07T03:08:05.146Z,47.89
2018-08-07T03:09:10.171Z,47.63
2018-08-07T03:10:13.610Z,48.10
2018-08-07T03:11:17.001Z,47.99
2018-08-07T03:12:20.389Z,48.03
2018-08-07T03:13:23.754Z,48.37
2018-08-07T03:14:27.140Z,48.62
2018-08-07T03:15:30.495Z,48.82
2018-08-07T03:16:34.112Z,48.79
2018-08-07T03:17:37.676Z,48.10
2018-08-07T03:18:41.070Z,48.76
2018-08-07T03:19:44.514Z,48.13
2018-08-07T03:20:47.924Z,48.57
2018-08-07T03:21:51.302Z,48.07
2018-08-07T03:22:54.656Z,48.67
2018-08-07T03:23:58.035Z,48.71
2018-08-07T03:25:01.445Z,48.18
2018-08-07T03:26:05.036Z,48.61
2018-08-07T03:27:08.575Z,47.99
2018-08-07T03:28:12.143Z,48.35
2018-08-07T03:29:15.519Z,48.03
2018-08-07T03:30:20.142Z,48.66
2018-08-07T03:31:23.510Z,48.32
2018-08-07T03:32:26.879Z,48.49
2018-08-07T03:33:30.274Z,48.63
2018-08-07T03:34:33.684Z,47.88
2018-08-07T03:35:37.073Z,48.59
2018-08-07T03:36:40.501Z,48.55
2018-08-07T03:37:43.949Z,48.54
2018-08-07T03:38:47.376Z,48.36
2018-08-07T03:39:50.743Z,48.77
2018-08-07T03:40:54.118Z,48.51
2018-08-07T03:41:57.510Z,48.50
2018-08-07T03:43:00.921Z,47.97
2018-08-07T03:44:04.356Z,48.21
2018-08-07T03:45:09.427Z,48.47
2018-08-07T03:46:12.925Z,48.06
2018-08-07T03:47:16.299Z,48.57
2018-08-07T03:48:19.678Z,47.98
2018-08-07T03:49:23.074Z,48.07
2018-08-07T03:50:26.441Z,48.32
2018-08-07T03:51:29.823Z,48.15
2018-08-07T03:52:33.212Z,48.69
2018-08-07T03:53:36.601Z,48.72
2018-08-07T03:54:40.027Z,48.28
2018-08-07T03:55:43.452Z,48.61
2018-08-07T03:56:46.893Z,48.52
2018-08-07T03:57:50.263Z,47.52
2018-08-07T03:58:53.671Z,47.84
2018-08-07T03:59:57.056Z,48.57
2018-08-07T04:01:00.463Z,48.19
2018-08-07T04:02:03.872Z,48.21
2018-08-07T04:03:07.801Z,48.48
2018-08-07T04:04:11.429Z,47.88
2018-08-07T04:05:15.207Z,48.00
2018-08-07T04:06:18.902Z,47.78
2018-08-07T04:07:22.290Z,48.35
2018-08-07T04:08:25.947Z,48.13
2018-08-07T04:09:29.368Z,48.22
2018-08-07T04:10:32.766Z,48.53
2018-08-07T04:11:36.229Z,47.92
2018-08-07T04:12:39.960Z,47.95
2018-08-07T04:13:43.361Z,48.31
2018-08-07T04:14:46.741Z,48.25
2018-08-07T04:15:50.146Z,48.71
2018-08-07T04:16:54.824Z,48.10
2018-08-07T04:17:58.215Z,48.48
2018-08-07T04:19:01.607Z,48.44
2018-08-07T04:20:07.001Z,47.95
2018-08-07T04:21:10.380Z,48.62
2018-08-07T04:22:13.785Z,48.45
2018-08-07T04:23:17.178Z,48.45
2018-08-07T04:24:20.563Z,48.54
2018-08-07T04:25:23.936Z,48.55
2018-08-07T04:26:27.361Z,48.17
2018-08-07T04:27:30.984Z,47.80
2018-08-07T04:28:34.373Z,48.43
2018-08-07T04:29:38.985Z,47.75
2018-08-07T04:30:42.376Z,48.07
2018-08-07T04:31:45.776Z,48.42
2018-08-07T04:32:49.262Z,48.47
2018-08-07T04:33:52.658Z,47.84
2018-08-07T04:34:56.135Z,48.00
2018-08-07T04:35:59.551Z,48.07
2018-08-07T04:37:02.950Z,47.73
2018-08-07T04:38:06.494Z,48.57
2018-08-07T04:39:12.115Z,48.34
2018-08-07T04:40:15.547Z,47.79
2018-08-07T04:41:18.932Z,48.57
2018-08-07T04:42:22.323Z,48.28
2018-08-07T04:43:25.762Z,48.40
2018-08-07T04:44:29.158Z,49.05
2018-08-07T04:45:32.587Z,47.96
2018-08-07T04:46:36.059Z,48.12
2018-08-07T04:47:39.459Z,48.24
2018-08-07T04:48:42.883Z,48.58
2018-08-07T04:49:46.247Z,48.38
2018-08-07T04:50:49.635Z,48.17
2018-08-07T04:51:53.115Z,47.91
2018-08-07T04:52:56.482Z,47.86
2018-08-07T04:53:59.907Z,48.67
2018-08-07T04:55:03.348Z,48.58
2018-08-07T04:56:06.817Z,47.57
2018-08-07T04:57:10.218Z,48.81
2018-08-07T04:58:13.697Z,47.84
2018-08-07T04:59:17.092Z,47.94
2018-08-07T05:00:20.523Z,45.48
2018-08-07T05:01:23.937Z,43.48
2018-08-07T05:02:27.341Z,42.39
2018-08-07T05:03:30.771Z,42.27
2018-08-07T05:04:34.184Z,42.10
2018-08-07T05:05:37.547Z,42.47
2018-08-07T05:06:40.943Z,42.49
2018-08-07T05:07:44.561Z,42.14
2018-08-07T05:08:47.961Z,43.06
2018-08-07T05:09:51.362Z,42.58
2018-08-07T05:10:54.752Z,42.87
2018-08-07T05:11:58.145Z,42.95
2018-08-07T05:13:01.499Z,42.78
2018-08-07T05:14:04.940Z,42.52
2018-08-07T05:15:09.834Z,43.62
2018-08-07T05:16:13.337Z,43.22
2018-08-07T05:17:16.838Z,42.91
2018-08-07T05:18:20.204Z,43.31
2018-08-07T05:19:23.607Z,43.29
2018-08-07T05:20:27.058Z,43.43
2018-08-07T05:21:30.452Z,43.54
2018-08-07T05:22:33.858Z,43.04
2018-08-07T05:23:37.265Z,43.64
2018-08-07T05:24:40.630Z,44.09
2018-08-07T05:25:44.065Z,43.21
2018-08-07T05:26:47.449Z,43.51
2018-08-07T05:27:50.882Z,43.97
2018-08-07T05:28:54.254Z,43.53
2018-08-07T05:29:57.675Z,44.22
2018-08-07T05:31:01.070Z,44.53
2018-08-07T05:32:04.447Z,44.56
2018-08-07T05:33:07.843Z,43.88
2018-08-07T05:34:11.330Z,43.69
2018-08-07T05:35:15.605Z,44.50
2018-08-07T05:36:19.942Z,44.24
2018-08-07T05:37:23.329Z,44.34
2018-08-07T05:38:26.750Z,44.21
2018-08-07T05:39:30.193Z,44.61
2018-08-07T05:40:33.624Z,44.86
2018-08-07T05:41:37.053Z,43.91
2018-08-07T05:42:41.133Z,44.42
2018-08-07T05:43:44.505Z,44.65
2018-08-07T05:44:47.927Z,44.95
2018-08-07T05:45:51.353Z,45.02
2018-08-07T05:46:54.763Z,45.39
2018-08-07T05:47:58.186Z,45.54
2018-08-07T05:49:01.588Z,45.20
2018-08-07T05:50:08.110Z,45.35
2018-08-07T05:51:11.671Z,45.30
2018-08-07T05:52:14.854Z,45.76
2018-08-07T05:53:18.254Z,45.02
2018-08-07T05:54:21.673Z,44.88
2018-08-07T05:55:25.099Z,44.99
2018-08-07T05:56:28.555Z,45.34
2018-08-07T05:57:31.965Z,45.23
2018-08-07T05:58:35.353Z,45.15
2018-08-07T05:59:38.739Z,45.22
2018-08-07T06:00:42.181Z,44.92
2018-08-07T06:01:45.586Z,44.92
2018-08-07T06:02:50.254Z,44.44
2018-08-07T06:03:54.086Z,45.40
2018-08-07T06:04:57.499Z,44.81
2018-08-07T06:06:00.994Z,45.25
2018-08-07T06:07:04.453Z,44.43
2018-08-07T06:08:07.842Z,44.70
2018-08-07T06:09:11.261Z,45.25
2018-08-07T06:10:15.027Z,44.63
2018-08-07T06:11:18.427Z,44.94
2018-08-07T06:12:21.808Z,44.79
2018-08-07T06:13:25.208Z,44.36
2018-08-07T06:14:28.591Z,44.72
2018-08-07T06:15:32.666Z,45.26
2018-08-07T06:16:36.078Z,44.71
2018-08-07T06:17:40.291Z,45.25
2018-08-07T06:18:43.682Z,45.03
2018-08-07T06:19:47.057Z,45.31
2018-08-07T06:20:50.488Z,44.83
2018-08-07T06:21:53.858Z,45.27
2018-08-07T06:22:57.226Z,45.32
2018-08-07T06:24:00.619Z,45.26
2018-08-07T06:25:04.133Z,45.41
2018-08-07T06:26:07.562Z,45.31
2018-08-07T06:27:10.991Z,45.84
2018-08-07T06:28:14.403Z,45.57
2018-08-07T06:29:17.856Z,45.68
2018-08-07T06:30:21.331Z,45.11
2018-08-07T06:31:24.788Z,45.95
2018-08-07T06:32:28.186Z,45.96
2018-08-07T06:33:31.607Z,45.53
2018-08-07T06:34:34.989Z,45.46
2018-08-07T06:35:38.419Z,45.56
2018-08-07T06:36:41.800Z,45.66
2018-08-07T06:37:45.263Z,45.72
2018-08-07T06:38:48.651Z,45.83
2018-08-07T06:39:52.062Z,46.04
2018-08-07T06:40:55.437Z,45.64
2018-08-07T06:41:58.799Z,45.40
2018-08-07T06:43:02.799Z,45.38
2018-08-07T06:44:06.905Z,46.37
2018-08-07T06:45:12.287Z,45.47
2018-08-07T06:46:15.714Z,45.54
2018-08-07T06:47:19.292Z,45.94
2018-08-07T06:48:22.722Z,46.40
2018-08-07T06:49:26.099Z,45.97
2018-08-07T06:50:29.542Z,46.36
2018-08-07T06:51:32.958Z,45.92
2018-08-07T06:52:36.410Z,45.54
2018-08-07T06:53:39.775Z,46.26
2018-08-07T06:54:43.171Z,46.28
2018-08-07T06:55:46.630Z,45.45
2018-08-07T06:56:50.021Z,46.32
2018-08-07T06:57:53.438Z,46.12
2018-08-07T06:58:56.795Z,46.24
2018-08-07T07:00:00.193Z,45.50
2018-08-07T07:01:05.153Z,46.26
2018-08-07T07:02:08.625Z,46.06
2018-08-07T07:03:12.055Z,46.26
2018-08-07T07:04:15.531Z,45.89
2018-08-07T07:05:19.121Z,45.85
2018-08-07T07:06:22.525Z,45.47
2018-08-07T07:07:25.907Z,46.28
2018-08-07T07:08:29.308Z,46.30
2018-08-07T07:09:32.744Z,46.37
2018-08-07T07:10:36.119Z,46.38
2018-08-07T07:11:39.549Z,46.42
2018-08-07T07:12:44.239Z,46.45
2018-08-07T07:13:47.655Z,46.43
2018-08-07T07:14:51.064Z,46.49
2018-08-07T07:15:54.433Z,46.02
2018-08-07T07:16:57.869Z,46.22
2018-08-07T07:18:01.305Z,45.98
2018-08-07T07:19:04.758Z,46.48
2018-08-07T07:20:10.622Z,46.45
2018-08-07T07:21:14.266Z,45.88
2018-08-07T07:22:17.706Z,46.08
2018-08-07T07:23:21.105Z,46.46
2018-08-07T07:24:24.503Z,45.89
2018-08-07T07:25:27.858Z,46.39
2018-08-07T07:26:31.304Z,46.49
2018-08-07T07:27:34.786Z,46.52
2018-08-07T07:28:38.205Z,46.05
2018-08-07T07:29:41.584Z,46.21
2018-08-07T07:30:44.966Z,45.65
2018-08-07T07:31:48.362Z,46.38
2018-08-07T07:32:53.201Z,45.87
2018-08-07T07:33:56.571Z,46.02
2018-08-07T07:34:59.989Z,46.52
2018-08-07T07:36:03.406Z,45.71
2018-08-07T07:37:06.937Z,46.45
2018-08-07T07:38:10.323Z,45.64
2018-08-07T07:39:13.778Z,46.54
2018-08-07T07:40:17.170Z,46.52
2018-08-07T07:41:20.596Z,46.03
2018-08-07T07:42:23.987Z,45.83
2018-08-07T07:43:27.417Z,45.96
2018-08-07T07:44:30.802Z,46.47
2018-08-07T07:45:34.228Z,46.03
2018-08-07T07:46:37.691Z,46.21
2018-08-07T07:47:41.426Z,46.47
2018-08-07T07:48:44.844Z,46.49
2018-08-07T07:49:48.294Z,46.47
2018-08-07T07:50:51.666Z,45.70
2018-08-07T07:51:55.077Z,46.10
2018-08-07T07:52:58.492Z,46.15
2018-08-07T07:54:01.964Z,46.47
2018-08-07T07:55:06.159Z,46.44
2018-08-07T07:56:09.781Z,46.19
2018-08-07T07:57:13.205Z,46.23
2018-08-07T07:58:16.643Z,46.23
2018-08-07T07:59:20.122Z,46.31
2018-08-07T08:00:27.176Z,46.60
2018-08-07T08:01:30.608Z,46.26
2018-08-07T08:02:34.137Z,46.20
2018-08-07T08:03:38.108Z,45.99
2018-08-07T08:04:41.540Z,45.81
2018-08-07T08:05:45.070Z,46.66
2018-08-07T08:06:48.428Z,46.08
2018-08-07T08:07:52.039Z,45.88
2018-08-07T08:08:55.523Z,46.60
2018-08-07T08:09:59.010Z,46.65
2018-08-07T08:11:02.416Z,46.49
2018-08-07T08:12:05.895Z,46.30
2018-08-07T08:13:09.327Z,46.08
2018-08-07T08:14:12.794Z,46.42
2018-08-07T08:15:17.670Z,46.47
2018-08-07T08:16:21.065Z,46.47
2018-08-07T08:17:24.684Z,46.55
2018-08-07T08:18:28.168Z,45.95
2018-08-07T08:19:31.589Z,47.14
2018-08-07T08:20:35.028Z,46.54
2018-08-07T08:21:38.448Z,47.31
2018-08-07T08:22:41.876Z,47.28
2018-08-07T08:23:45.282Z,47.00
2018-08-07T08:24:48.704Z,47.03
2018-08-07T08:25:52.147Z,47.36
2018-08-07T08:26:55.592Z,46.63
2018-08-07T08:27:59.036Z,46.36
2018-08-07T08:29:02.471Z,46.86
2018-08-07T08:30:08.656Z,47.03
2018-08-07T08:31:12.079Z,47.11
2018-08-07T08:32:15.623Z,46.30
2018-08-07T08:33:19.168Z,46.77
2018-08-07T08:34:22.768Z,46.80
2018-08-07T08:35:26.596Z,47.35
2018-08-07T08:36:30.092Z,47.43
2018-08-07T08:37:33.527Z,47.22
2018-08-07T08:38:36.962Z,47.15
2018-08-07T08:39:40.427Z,47.53
2018-08-07T08:40:43.940Z,46.91
2018-08-07T08:41:47.400Z,47.19
2018-08-07T08:42:50.888Z,47.31
2018-08-07T08:43:54.291Z,47.66
2018-08-07T08:44:57.705Z,47.36
2018-08-07T08:46:01.065Z,46.98
2018-08-07T08:47:04.630Z,47.04
2018-08-07T08:48:08.269Z,47.51
2018-08-07T08:49:11.626Z,47.46
2018-08-07T08:50:16.415Z,47.58
2018-08-07T08:51:19.875Z,47.99
2018-08-07T08:52:23.277Z,48.10
2018-08-07T08:53:26.712Z,47.49
2018-08-07T08:54:30.139Z,48.11
2018-08-07T08:55:33.658Z,47.40
2018-08-07T08:56:37.300Z,48.30
2018-08-07T08:57:41.642Z,47.43
2018-08-07T08:58:45.127Z,48.39
2018-08-07T08:59:48.649Z,47.67
2018-08-07T09:00:52.161Z,48.59
2018-08-07T09:01:56.857Z,47.93
2018-08-07T09:03:02.057Z,48.47
2018-08-07T09:04:05.566Z,48.29
2018-08-07T09:05:10.281Z,48.05
2018-08-07T09:06:13.784Z,48.53
2018-08-07T09:07:17.327Z,47.67
2018-08-07T09:08:20.952Z,47.44
2018-08-07T09:09:24.729Z,46.54
2018-08-07T09:10:30.423Z,46.34
2018-08-07T09:11:33.840Z,47.09
2018-08-07T09:12:37.260Z,47.05
2018-08-07T09:13:40.672Z,46.94
2018-08-07T09:14:44.098Z,46.61
2018-08-07T09:15:47.518Z,46.64
2018-08-07T09:16:50.913Z,46.51
2018-08-07T09:17:54.424Z,47.22
2018-08-07T09:18:57.858Z,46.56
2018-08-07T09:20:01.269Z,47.11
2018-08-07T09:21:04.716Z,46.82
2018-08-07T09:22:08.343Z,46.58
2018-08-07T09:23:11.765Z,47.06
2018-08-07T09:24:15.166Z,47.13
2018-08-07T09:25:19.147Z,46.28
2018-08-07T09:26:22.533Z,46.99
2018-08-07T09:27:25.959Z,46.05
2018-08-07T09:28:29.390Z,46.37
2018-08-07T09:29:32.809Z,46.48
2018-08-07T09:30:36.256Z,46.72
2018-08-07T09:31:39.686Z,46.47
2018-08-07T09:32:43.189Z,46.09
2018-08-07T09:33:46.602Z,46.29
2018-08-07T09:34:50.018Z,46.83
2018-08-07T09:35:53.484Z,46.43
2018-08-07T09:36:56.908Z,46.13
2018-08-07T09:38:00.573Z,46.17
2018-08-07T09:39:06.032Z,46.50
2018-08-07T09:40:12.381Z,46.79
2018-08-07T09:41:15.800Z,46.54
2018-08-07T09:42:19.236Z,46.53
2018-08-07T09:43:22.708Z,46.22
2018-08-07T09:44:26.237Z,46.38
2018-08-07T09:45:32.131Z,46.41
2018-08-07T09:46:35.613Z,46.14
2018-08-07T09:47:39.027Z,46.16
2018-08-07T09:48:42.486Z,46.36
2018-08-07T09:49:45.964Z,46.06
2018-08-07T09:50:49.419Z,46.09
2018-08-07T09:51:52.828Z,46.12
2018-08-07T09:52:56.299Z,46.59
2018-08-07T09:53:59.682Z,46.96
2018-08-07T09:55:03.122Z,46.41
2018-08-07T09:56:06.571Z,46.70
2018-08-07T09:57:09.978Z,46.99
2018-08-07T09:58:13.417Z,46.30
2018-08-07T09:59:16.870Z,47.06
2018-08-07T10:00:26.256Z,46.72
2018-08-07T10:01:31.501Z,46.40
2018-08-07T10:02:39.907Z,46.94
2018-08-07T10:03:43.348Z,46.94
2018-08-07T10:04:46.757Z,46.37
2018-08-07T10:05:50.200Z,47.03
2018-08-07T10:06:53.626Z,47.07
2018-08-07T10:07:57.145Z,46.29
2018-08-07T10:09:00.566Z,47.08
2018-08-07T10:10:04.947Z,46.61
2018-08-07T10:11:08.445Z,47.10
2018-08-07T10:12:11.962Z,46.97
2018-08-07T10:13:15.443Z,46.82
2018-08-07T10:14:18.914Z,46.52
2018-08-07T10:15:22.476Z,47.08
2018-08-07T10:16:25.918Z,46.92
2018-08-07T10:17:29.421Z,46.46
2018-08-07T10:18:32.915Z,47.18
2018-08-07T10:19:36.464Z,46.88
2018-08-07T10:20:40.042Z,47.07
2018-08-07T10:21:43.617Z,47.31
2018-08-07T10:22:47.068Z,46.72
2018-08-07T10:23:50.495Z,47.21
2018-08-07T10:24:54.037Z,47.17
2018-08-07T10:25:57.516Z,46.89
2018-08-07T10:27:00.993Z,46.85
2018-08-07T10:28:04.441Z,47.16
2018-08-07T10:29:09.601Z,46.96
2018-08-07T10:30:17.103Z,46.62
2018-08-07T10:31:20.508Z,46.46
2018-08-07T10:32:23.984Z,47.28
2018-08-07T10:33:27.347Z,46.82
2018-08-07T10:34:30.789Z,46.72
2018-08-07T10:35:34.281Z,46.60
2018-08-07T10:36:37.829Z,47.42
2018-08-07T10:37:42.205Z,47.05
2018-08-07T10:38:45.698Z,46.78
2018-08-07T10:39:49.240Z,47.43
2018-08-07T10:40:52.866Z,47.40
2018-08-07T10:41:56.217Z,46.72
2018-08-07T10:42:59.703Z,46.72
2018-08-07T10:44:04.168Z,46.64
2018-08-07T10:45:10.103Z,46.82
2018-08-07T10:46:13.548Z,47.14
2018-08-07T10:47:17.016Z,46.92
2018-08-07T10:48:20.556Z,47.42
2018-08-07T10:49:23.939Z,47.00
2018-08-07T10:50:28.461Z,46.96
2018-08-07T10:51:31.947Z,47.15
2018-08-07T10:52:35.571Z,46.89
2018-08-07T10:53:39.039Z,47.18
2018-08-07T10:54:42.475Z,47.34
2018-08-07T10:55:45.920Z,46.83
2018-08-07T10:56:49.332Z,47.30
2018-08-07T10:57:54.032Z,47.16
2018-08-07T10:58:57.432Z,46.80
2018-08-07T11:00:00.859Z,46.92
2018-08-07T11:01:04.312Z,47.12
2018-08-07T11:02:07.698Z,47.01
2018-08-07T11:03:11.128Z,47.24
2018-08-07T11:04:14.533Z,47.22
2018-08-07T11:05:18.502Z,46.75
2018-08-07T11:06:21.920Z,46.81
2018-08-07T11:07:25.362Z,46.84
2018-08-07T11:08:28.769Z,47.14
2018-08-07T11:09:32.214Z,46.93
2018-08-07T11:10:36.059Z,46.77
2018-08-07T11:11:39.453Z,46.40
2018-08-07T11:12:42.990Z,46.78
2018-08-07T11:13:46.427Z,47.17
2018-08-07T11:14:49.832Z,46.40
2018-08-07T11:15:53.297Z,46.41
2018-08-07T11:16:56.792Z,46.55
2018-08-07T11:18:00.762Z,46.80
2018-08-07T11:19:04.183Z,46.98
2018-08-07T11:20:08.012Z,46.74
2018-08-07T11:21:11.435Z,46.29
2018-08-07T11:22:14.862Z,47.01
2018-08-07T11:23:18.229Z,46.75
2018-08-07T11:24:21.656Z,46.80
2018-08-07T11:25:26.252Z,46.70
2018-08-07T11:26:29.685Z,46.19
2018-08-07T11:27:33.192Z,46.60
2018-08-07T11:28:36.619Z,45.71
2018-08-07T11:29:40.041Z,45.86
2018-08-07T11:30:43.534Z,45.71
2018-08-07T11:31:46.975Z,46.60
2018-08-07T11:32:50.806Z,45.98
2018-08-07T11:33:54.196Z,46.59
2018-08-07T11:34:57.621Z,46.73
2018-08-07T11:36:01.142Z,46.52
2018-08-07T11:37:04.631Z,46.65
2018-08-07T11:38:08.082Z,46.65
2018-08-07T11:39:11.500Z,46.12
2018-08-07T11:40:17.188Z,46.63
2018-08-07T11:41:20.627Z,45.99
2018-08-07T11:42:24.056Z,46.20
2018-08-07T11:43:27.524Z,46.64
2018-08-07T11:44:30.941Z,46.19
2018-08-07T11:45:34.419Z,46.31
2018-08-07T11:46:37.830Z,45.84
2018-08-07T11:47:41.269Z,46.31
2018-08-07T11:48:44.762Z,46.71
2018-08-07T11:49:48.196Z,46.25
2018-08-07T11:50:51.612Z,45.86
2018-08-07T11:51:55.070Z,46.28
2018-08-07T11:52:58.514Z,46.30
2018-08-07T11:54:01.936Z,45.85
2018-08-07T11:55:05.480Z,46.20
2018-08-07T11:56:08.978Z,45.91
2018-08-07T11:57:12.416Z,46.51
2018-08-07T11:58:15.853Z,46.51
2018-08-07T11:59:20.283Z,45.97
2018-08-07T12:00:26.235Z,46.26
2018-08-07T12:01:29.661Z,46.01
2018-08-07T12:02:33.165Z,46.34
2018-08-07T12:03:36.566Z,46.40
2018-08-07T12:04:40.012Z,45.99
2018-08-07T12:05:43.487Z,46.20
2018-08-07T12:06:46.931Z,46.70
2018-08-07T12:07:50.413Z,46.59
2018-08-07T12:08:53.828Z,45.93
2018-08-07T12:09:57.254Z,46.57
2018-08-07T12:11:00.653Z,46.72
2018-08-07T12:12:04.121Z,45.92
2018-08-07T12:13:07.502Z,46.53
2018-08-07T12:14:10.927Z,46.15
2018-08-07T12:15:16.451Z,46.51
2018-08-07T12:16:19.849Z,46.16
2018-08-07T12:17:23.273Z,46.19
2018-08-07T12:18:26.704Z,45.94
2018-08-07T12:19:30.156Z,46.04
2018-08-07T12:20:33.688Z,45.73
2018-08-07T12:21:37.100Z,45.90
2018-08-07T12:22:40.591Z,45.61
2018-08-07T12:23:44.068Z,46.16
2018-08-07T12:24:47.680Z,45.67
2018-08-07T12:25:51.121Z,46.19
2018-08-07T12:26:54.552Z,46.36
2018-08-07T12:27:57.974Z,46.22
2018-08-07T12:29:01.376Z,45.90
2018-08-07T12:30:12.388Z,46.00
2018-08-07T12:31:15.819Z,45.75
2018-08-07T12:32:19.287Z,45.81
2018-08-07T12:33:22.748Z,45.35
2018-08-07T12:34:26.202Z,45.97
2018-08-07T12:35:29.734Z,45.96
2018-08-07T12:36:33.234Z,45.34
2018-08-07T12:37:36.835Z,45.65
2018-08-07T12:38:40.295Z,45.98
2018-08-07T12:39:44.368Z,45.63
2018-08-07T12:40:49.046Z,45.99
2018-08-07T12:41:52.784Z,45.71
2018-08-07T12:42:58.588Z,45.59
2018-08-07T12:44:02.049Z,45.40
2018-08-07T12:45:05.759Z,45.11
2018-08-07T12:46:09.214Z,45.94
2018-08-07T12:47:12.642Z,44.96
2018-08-07T12:48:16.064Z,45.52
2018-08-07T12:49:19.560Z,44.91
2018-08-07T12:50:23.000Z,45.08
2018-08-07T12:51:26.424Z,44.69
2018-08-07T12:52:29.864Z,44.80
2018-08-07T12:53:33.327Z,45.66
2018-08-07T12:54:36.785Z,45.51
2018-08-07T12:55:40.190Z,45.67
2018-08-07T12:56:43.610Z,45.06
2018-08-07T12:57:47.609Z,45.59
2018-08-07T12:58:51.025Z,44.84
2018-08-07T12:59:54.472Z,44.91
2018-08-07T13:00:57.882Z,45.82
2018-08-07T13:02:01.322Z,45.39
2018-08-07T13:03:04.805Z,45.75
2018-08-07T13:04:08.403Z,45.16
2018-08-07T13:05:11.879Z,45.59
2018-08-07T13:06:15.317Z,46.35
2018-08-07T13:07:18.750Z,45.52
2018-08-07T13:08:22.235Z,46.22
2018-08-07T13:09:26.952Z,45.56
2018-08-07T13:10:30.419Z,45.75
2018-08-07T13:11:33.892Z,46.17
2018-08-07T13:12:37.329Z,45.61
2018-08-07T13:13:40.716Z,46.23
2018-08-07T13:14:44.227Z,46.56
2018-08-07T13:15:47.699Z,46.11
2018-08-07T13:16:51.098Z,46.17
2018-08-07T13:17:54.591Z,46.54
2018-08-07T13:18:58.170Z,46.50
2018-08-07T13:20:01.573Z,46.00
2018-08-07T13:21:05.044Z,46.11
2018-08-07T13:22:08.449Z,46.39
2018-08-07T13:23:11.872Z,46.21
2018-08-07T13:24:15.296Z,46.21
2018-08-07T13:25:20.694Z,45.93
2018-08-07T13:26:24.175Z,46.01
2018-08-07T13:27:27.580Z,45.97
2018-08-07T13:28:31.028Z,46.61
2018-08-07T13:29:34.465Z,46.22
2018-08-07T13:30:37.838Z,46.65
2018-08-07T13:31:43.469Z,46.24
2018-08-07T13:32:47.297Z,46.38
2018-08-07T13:33:51.494Z,45.97
2018-08-07T13:34:55.014Z,46.57
2018-08-07T13:35:58.506Z,46.65
2018-08-07T13:37:02.136Z,45.97
2018-08-07T13:38:05.683Z,45.99
2018-08-07T13:39:10.216Z,46.29